createdAt,value
2019-02-26T00:00:47.153Z,5.17
2019-02-26T00:01:48.535Z,5.17
2019-02-26T00:02:48.607Z,5.18
2019-02-26T00:03:44.790Z,5.21
2019-02-26T00:04:44.707Z,5.08
2019-02-26T00:05:47.901Z,5.10
2019-02-26T00:06:47.116Z,5.14
2019-02-26T00:07:49.099Z,5.24
2019-02-26T00:08:47.246Z,5.24
2019-02-26T00:09:44.301Z,5.16
2019-02-26T00:10:44.219Z,5.20
2019-02-26T00:11:44.139Z,5.21
2019-02-26T00:12:44.057Z,5.23
2019-02-26T00:13:43.976Z,5.21
2019-02-26T00:14:45.313Z,5.17
2019-02-26T00:15:45.875Z,5.13
2019-02-26T00:16:44.616Z,5.14
2019-02-26T00:17:45.770Z,5.18
2019-02-26T00:18:43.569Z,5.17
2019-02-26T00:19:43.487Z,5.18
2019-02-26T00:20:43.406Z,5.24
2019-02-26T00:21:45.207Z,5.26
2019-02-26T00:22:43.241Z,5.28
2019-02-26T00:23:44.390Z,5.36
2019-02-26T00:24:44.471Z,5.31
2019-02-26T00:25:43.000Z,5.49
2019-02-26T00:26:45.029Z,5.39
2019-02-26T00:27:42.835Z,5.36
2019-02-26T00:28:43.662Z,5.36
2019-02-26T00:29:44.326Z,5.32
2019-02-26T00:30:42.591Z,5.38
2019-02-26T00:31:43.414Z,5.36
2019-02-26T00:32:42.428Z,5.32
2019-02-26T00:33:42.349Z,5.47
2019-02-26T00:34:42.265Z,5.49
2019-02-26T00:35:43.930Z,5.41
2019-02-26T00:36:42.104Z,5.53
2019-02-26T00:37:43.637Z,5.50
2019-02-26T00:38:42.677Z,5.49
2019-02-26T00:39:41.859Z,5.32
2019-02-26T00:40:43.224Z,5.36
2019-02-26T00:41:41.697Z,5.31
2019-02-26T00:42:41.614Z,5.31
2019-02-26T00:43:41.537Z,5.28
2019-02-26T00:44:41.452Z,5.29
2019-02-26T00:45:41.371Z,5.31
2019-02-26T00:46:41.290Z,5.28
2019-02-26T00:47:43.356Z,5.28
2019-02-26T00:48:43.025Z,5.23
2019-02-26T00:49:42.050Z,5.36
2019-02-26T00:50:40.964Z,5.34
2019-02-26T00:51:44.342Z,5.41
2019-02-26T00:52:40.802Z,5.35
2019-02-26T00:53:40.720Z,5.36
2019-02-26T00:54:40.638Z,5.35
2019-02-26T00:55:40.558Z,5.31
2019-02-26T00:56:41.088Z,5.45
2019-02-26T00:57:41.089Z,5.41
2019-02-26T00:58:41.524Z,5.34
2019-02-26T00:59:41.275Z,5.36
2019-02-26T01:00:40.151Z,5.49
2019-02-26T01:01:40.069Z,5.44
2019-02-26T01:02:39.988Z,5.47
2019-02-26T01:03:40.766Z,5.44
2019-02-26T01:04:41.449Z,5.52
2019-02-26T01:05:40.926Z,5.57
2019-02-26T01:06:39.662Z,5.50
2019-02-26T01:07:41.907Z,5.53
2019-02-26T01:08:40.277Z,5.41
2019-02-26T01:09:39.420Z,5.39
2019-02-26T01:10:41.456Z,5.41
2019-02-26T01:11:39.255Z,5.49
2019-02-26T01:12:40.302Z,5.45
2019-02-26T01:13:39.094Z,5.32
2019-02-26T01:14:39.602Z,5.26
2019-02-26T01:15:38.929Z,5.24
2019-02-26T01:16:39.399Z,5.21
2019-02-26T01:17:40.121Z,5.05
2019-02-26T01:18:38.685Z,5.02
2019-02-26T01:19:40.633Z,5.06
2019-02-26T01:20:38.522Z,5.06
2019-02-26T01:21:38.442Z,5.10
2019-02-26T01:22:40.317Z,5.21
2019-02-26T01:23:38.279Z,5.18
2019-02-26T01:24:38.197Z,5.20
2019-02-26T01:25:38.820Z,5.24
2019-02-26T01:26:38.034Z,5.26
2019-02-26T01:27:37.953Z,5.29
2019-02-26T01:28:39.573Z,5.28
2019-02-26T01:29:37.790Z,5.21
2019-02-26T01:30:37.708Z,5.20
2019-02-26T01:31:37.626Z,5.18
2019-02-26T01:32:37.696Z,5.21
2019-02-26T01:33:37.463Z,5.17
2019-02-26T01:34:38.360Z,5.14
2019-02-26T01:35:37.749Z,5.17
2019-02-26T01:36:38.301Z,5.11
2019-02-26T01:37:37.138Z,5.10
2019-02-26T01:38:39.465Z,5.05
2019-02-26T01:39:38.335Z,5.21
2019-02-26T01:40:39.410Z,5.20
2019-02-26T01:41:36.814Z,5.20
2019-02-26T01:42:36.731Z,5.23
2019-02-26T01:43:36.651Z,5.17
2019-02-26T01:44:38.215Z,5.16
2019-02-26T01:45:36.488Z,5.02
2019-02-26T01:46:37.164Z,5.10
2019-02-26T01:47:36.327Z,5.16
2019-02-26T01:48:36.729Z,5.16
2019-02-26T01:49:36.162Z,5.06
2019-02-26T01:50:37.869Z,5.18
2019-02-26T01:51:35.998Z,5.10
2019-02-26T01:52:35.917Z,5.14
2019-02-26T01:53:35.836Z,5.08
2019-02-26T01:54:37.426Z,5.17
2019-02-26T01:55:35.673Z,5.20
2019-02-26T01:56:36.600Z,5.17
2019-02-26T01:57:35.509Z,5.10
2019-02-26T01:58:35.427Z,5.13
2019-02-26T01:59:35.345Z,5.13
2019-02-26T02:00:35.264Z,5.11
2019-02-26T02:01:35.183Z,5.05
2019-02-26T02:02:35.117Z,4.95
2019-02-26T02:03:35.020Z,4.96
2019-02-26T02:04:37.082Z,5.00
2019-02-26T02:05:34.857Z,4.91
2019-02-26T02:06:36.597Z,4.99
2019-02-26T02:07:34.696Z,4.98
2019-02-26T02:08:34.613Z,4.87
2019-02-26T02:09:34.531Z,4.87
2019-02-26T02:10:34.449Z,4.85
2019-02-26T02:11:35.881Z,4.77
2019-02-26T02:12:36.433Z,4.85
2019-02-26T02:13:35.862Z,4.84
2019-02-26T02:14:34.126Z,4.83
2019-02-26T02:15:35.654Z,4.83
2019-02-26T02:16:33.962Z,4.76
2019-02-26T02:17:35.620Z,4.80
2019-02-26T02:18:33.797Z,4.87
2019-02-26T02:19:33.716Z,4.79
2019-02-26T02:20:33.633Z,4.79
2019-02-26T02:21:35.528Z,4.79
2019-02-26T02:22:35.158Z,4.69
2019-02-26T02:23:33.488Z,4.73
2019-02-26T02:24:33.312Z,4.62
2019-02-26T02:25:35.513Z,4.66
2019-02-26T02:26:34.965Z,4.62
2019-02-26T02:27:33.324Z,4.72
2019-02-26T02:28:33.730Z,4.59
2019-02-26T02:29:32.898Z,4.66
2019-02-26T02:30:35.548Z,4.56
2019-02-26T02:31:34.767Z,4.52
2019-02-26T02:32:34.462Z,4.54
2019-02-26T02:33:34.955Z,4.54
2019-02-26T02:34:35.970Z,4.58
2019-02-26T02:35:32.407Z,4.58
2019-02-26T02:36:32.327Z,4.54
2019-02-26T02:37:32.244Z,4.37
2019-02-26T02:38:36.502Z,4.52
2019-02-26T02:39:32.080Z,4.52
2019-02-26T02:40:32.000Z,4.48
2019-02-26T02:41:31.917Z,4.47
2019-02-26T02:42:31.835Z,4.48
2019-02-26T02:43:31.754Z,4.48
2019-02-26T02:44:31.671Z,4.55
2019-02-26T02:45:31.588Z,4.41
2019-02-26T02:46:31.556Z,4.41
2019-02-26T02:47:33.789Z,4.28
2019-02-26T02:48:31.343Z,4.30
2019-02-26T02:49:32.895Z,4.32
2019-02-26T02:50:31.179Z,4.29
2019-02-26T02:51:33.474Z,4.29
2019-02-26T02:52:33.143Z,4.41
2019-02-26T02:53:32.368Z,4.41
2019-02-26T02:54:30.852Z,4.41
2019-02-26T02:55:30.768Z,4.41
2019-02-26T02:56:31.389Z,4.47
2019-02-26T02:57:32.683Z,4.41
2019-02-26T02:58:30.551Z,4.46
2019-02-26T02:59:31.006Z,4.38
2019-02-26T03:00:32.188Z,4.28
2019-02-26T03:01:30.278Z,4.37
2019-02-26T03:02:30.197Z,4.38
2019-02-26T03:03:30.114Z,4.30
2019-02-26T03:04:31.708Z,4.34
2019-02-26T03:05:32.084Z,4.34
2019-02-26T03:06:30.614Z,4.29
2019-02-26T03:07:29.785Z,4.29
2019-02-26T03:08:29.703Z,4.23
2019-02-26T03:09:31.689Z,4.26
2019-02-26T03:10:33.520Z,4.30
2019-02-26T03:11:29.457Z,4.19
2019-02-26T03:12:29.374Z,4.10
2019-02-26T03:13:29.293Z,4.22
2019-02-26T03:14:32.450Z,4.12
2019-02-26T03:15:30.315Z,4.11
2019-02-26T03:16:29.047Z,4.16
2019-02-26T03:17:28.964Z,4.23
2019-02-26T03:18:28.884Z,4.15
2019-02-26T03:19:29.747Z,4.16
2019-02-26T03:20:30.895Z,4.08
2019-02-26T03:21:30.621Z,4.12
2019-02-26T03:22:28.553Z,4.08
2019-02-26T03:23:28.471Z,4.08
2019-02-26T03:24:30.856Z,4.07
2019-02-26T03:25:29.137Z,4.16
2019-02-26T03:26:28.224Z,4.02
2019-02-26T03:27:31.357Z,4.05
2019-02-26T03:28:28.061Z,4.15
2019-02-26T03:29:27.977Z,4.18
2019-02-26T03:30:33.976Z,4.07
2019-02-26T03:31:31.011Z,4.07
2019-02-26T03:32:27.741Z,4.07
2019-02-26T03:33:27.659Z,4.02
2019-02-26T03:34:27.568Z,4.10
2019-02-26T03:35:27.489Z,4.04
2019-02-26T03:36:27.408Z,4.11
2019-02-26T03:37:28.869Z,4.08
2019-02-26T03:38:28.888Z,3.92
2019-02-26T03:39:27.157Z,4.00
2019-02-26T03:40:29.839Z,3.87
2019-02-26T03:41:28.854Z,3.89
2019-02-26T03:42:27.008Z,3.77
2019-02-26T03:43:28.631Z,3.69
2019-02-26T03:44:29.618Z,3.62
2019-02-26T03:45:26.664Z,3.61
2019-02-26T03:46:26.580Z,3.59
2019-02-26T03:47:26.497Z,3.74
2019-02-26T03:48:26.415Z,3.68
2019-02-26T03:49:27.119Z,3.71
2019-02-26T03:50:27.181Z,3.72
2019-02-26T03:51:26.167Z,3.72
2019-02-26T03:52:26.084Z,3.64
2019-02-26T03:53:30.222Z,3.62
2019-02-26T03:54:25.919Z,3.57
2019-02-26T03:55:25.837Z,3.54
2019-02-26T03:56:25.755Z,3.37
2019-02-26T03:57:25.672Z,3.39
2019-02-26T03:58:25.588Z,3.47
2019-02-26T03:59:25.505Z,3.54
2019-02-26T04:00:25.423Z,3.56
2019-02-26T04:01:25.341Z,3.59
2019-02-26T04:02:25.257Z,3.74
2019-02-26T04:03:25.175Z,3.69
2019-02-26T04:04:26.118Z,3.74
2019-02-26T04:05:25.010Z,3.83
2019-02-26T04:06:24.943Z,3.90
2019-02-26T04:07:26.034Z,4.02
2019-02-26T04:08:26.865Z,4.02
2019-02-26T04:09:24.679Z,4.18
2019-02-26T04:10:24.597Z,4.10
2019-02-26T04:11:25.764Z,4.25
2019-02-26T04:12:24.432Z,4.07
2019-02-26T04:13:24.349Z,4.10
2019-02-26T04:14:26.354Z,4.10
2019-02-26T04:15:27.101Z,4.10
2019-02-26T04:16:24.100Z,4.16
2019-02-26T04:17:27.952Z,4.05
2019-02-26T04:18:23.937Z,4.10
2019-02-26T04:19:26.160Z,3.97
2019-02-26T04:20:26.941Z,4.01
2019-02-26T04:21:23.691Z,3.86
2019-02-26T04:22:26.171Z,3.83
2019-02-26T04:23:23.525Z,3.83
2019-02-26T04:24:25.760Z,3.82
2019-02-26T04:25:27.000Z,3.90
2019-02-26T04:26:24.032Z,3.86
2019-02-26T04:27:23.192Z,3.79
2019-02-26T04:28:27.259Z,3.69
2019-02-26T04:29:23.028Z,3.69
2019-02-26T04:30:22.944Z,3.72
2019-02-26T04:31:22.862Z,3.69
2019-02-26T04:32:23.286Z,3.59
2019-02-26T04:33:22.697Z,3.57
2019-02-26T04:34:23.354Z,3.50
2019-02-26T04:35:22.633Z,3.47
2019-02-26T04:36:22.479Z,3.47
2019-02-26T04:37:24.607Z,3.54
2019-02-26T04:38:23.385Z,3.59
2019-02-26T04:39:22.460Z,3.62
2019-02-26T04:40:22.119Z,3.72
2019-02-26T04:41:22.085Z,3.69
2019-02-26T04:42:21.957Z,3.74
2019-02-26T04:43:21.870Z,3.80
2019-02-26T04:44:22.960Z,3.74
2019-02-26T04:45:21.724Z,3.80
2019-02-26T04:46:21.623Z,3.82
2019-02-26T04:47:24.062Z,3.77
2019-02-26T04:48:23.629Z,3.83
2019-02-26T04:49:21.374Z,3.80
2019-02-26T04:50:26.061Z,3.74
2019-02-26T04:51:21.208Z,3.69
2019-02-26T04:52:21.125Z,3.65
2019-02-26T04:53:23.240Z,3.74
2019-02-26T04:54:23.844Z,3.66
2019-02-26T04:55:20.879Z,3.80
2019-02-26T04:56:20.797Z,3.82
2019-02-26T04:57:20.713Z,3.86
2019-02-26T04:58:22.573Z,3.82
2019-02-26T04:59:20.546Z,3.72
2019-02-26T05:00:20.465Z,3.74
2019-02-26T05:01:20.381Z,3.74
2019-02-26T05:02:20.300Z,3.84
2019-02-26T05:03:20.250Z,3.90
2019-02-26T05:04:20.134Z,4.00
2019-02-26T05:05:22.402Z,4.08
2019-02-26T05:06:19.966Z,3.97
2019-02-26T05:07:19.885Z,4.02
2019-02-26T05:08:19.802Z,3.98
2019-02-26T05:09:19.719Z,3.93
2019-02-26T05:10:20.486Z,3.97
2019-02-26T05:11:31.761Z,3.93
2019-02-26T05:12:19.521Z,3.86
2019-02-26T05:13:21.832Z,3.80
2019-02-26T05:14:23.021Z,3.80
2019-02-26T05:15:20.994Z,3.84
2019-02-26T05:16:19.140Z,3.82
2019-02-26T05:17:21.382Z,3.68
2019-02-26T05:18:20.333Z,3.69
2019-02-26T05:19:21.514Z,3.72
2019-02-26T05:20:19.085Z,3.68
2019-02-26T05:21:18.727Z,3.62
2019-02-26T05:22:19.842Z,3.68
2019-02-26T05:23:20.519Z,3.66
2019-02-26T05:24:21.264Z,3.66
2019-02-26T05:25:19.813Z,3.56
2019-02-26T05:26:20.501Z,3.62
2019-02-26T05:27:21.881Z,3.62
2019-02-26T05:28:18.147Z,3.62
2019-02-26T05:29:18.064Z,3.56
2019-02-26T05:30:20.065Z,3.53
2019-02-26T05:31:17.899Z,3.54
2019-02-26T05:32:17.817Z,3.56
2019-02-26T05:33:18.473Z,3.43
2019-02-26T05:34:20.448Z,3.44
2019-02-26T05:35:20.411Z,3.39
2019-02-26T05:36:17.490Z,3.51
2019-02-26T05:37:17.406Z,3.54
2019-02-26T05:38:17.322Z,3.48
2019-02-26T05:39:20.275Z,3.47
2019-02-26T05:40:21.445Z,3.54
2019-02-26T05:41:17.074Z,3.54
2019-02-26T05:42:16.991Z,3.57
2019-02-26T05:43:16.919Z,3.61
2019-02-26T05:44:16.828Z,3.56
2019-02-26T05:45:16.741Z,3.56
2019-02-26T05:46:19.031Z,3.50
2019-02-26T05:47:18.667Z,3.47
2019-02-26T05:48:20.122Z,3.44
2019-02-26T05:49:19.365Z,3.51
2019-02-26T05:50:16.808Z,3.56
2019-02-26T05:51:16.245Z,3.61
2019-02-26T05:52:16.162Z,3.43
2019-02-26T05:53:16.079Z,3.46
2019-02-26T05:54:20.897Z,3.34
2019-02-26T05:55:17.635Z,3.41
2019-02-26T05:56:17.162Z,3.43
2019-02-26T05:57:27.041Z,3.48
2019-02-26T05:58:18.658Z,3.51
2019-02-26T05:59:17.827Z,3.54
2019-02-26T06:00:18.131Z,3.54
2019-02-26T06:01:16.834Z,3.47
2019-02-26T06:02:16.947Z,3.51
2019-02-26T06:03:17.913Z,3.54
2019-02-26T06:04:17.662Z,3.61
2019-02-26T06:05:17.583Z,3.57
2019-02-26T06:06:15.001Z,3.57
2019-02-26T06:07:19.214Z,3.57
2019-02-26T06:08:14.839Z,3.54
2019-02-26T06:09:14.755Z,3.53
2019-02-26T06:10:14.672Z,3.46
2019-02-26T06:11:16.981Z,3.48
2019-02-26T06:12:14.507Z,3.39
2019-02-26T06:13:15.663Z,3.48
2019-02-26T06:14:14.345Z,3.43
2019-02-26T06:15:14.258Z,3.32
2019-02-26T06:16:14.175Z,3.41
2019-02-26T06:17:15.473Z,3.25
2019-02-26T06:18:14.007Z,3.35
2019-02-26T06:19:15.690Z,3.39
2019-02-26T06:20:13.844Z,3.39
2019-02-26T06:21:15.926Z,3.43
2019-02-26T06:22:16.960Z,3.37
2019-02-26T06:23:13.593Z,3.35
2019-02-26T06:24:13.616Z,3.39
2019-02-26T06:25:17.771Z,3.39
2019-02-26T06:26:14.913Z,3.41
2019-02-26T06:27:15.847Z,3.28
2019-02-26T06:28:15.397Z,3.17
2019-02-26T06:29:13.095Z,3.14
2019-02-26T06:30:13.015Z,3.16
2019-02-26T06:31:14.626Z,3.21
2019-02-26T06:32:12.847Z,3.24
2019-02-26T06:33:13.995Z,3.16
2019-02-26T06:34:14.355Z,3.29
2019-02-26T06:35:13.713Z,3.29
2019-02-26T06:36:12.511Z,3.19
2019-02-26T06:37:13.847Z,3.21
2019-02-26T06:38:12.345Z,3.27
2019-02-26T06:39:12.263Z,3.32
2019-02-26T06:40:12.180Z,3.32
2019-02-26T06:41:12.097Z,3.41
2019-02-26T06:42:12.695Z,3.47
2019-02-26T06:43:11.930Z,3.37
2019-02-26T06:44:11.848Z,3.35
2019-02-26T06:45:13.928Z,3.43
2019-02-26T06:46:13.794Z,3.43
2019-02-26T06:47:11.598Z,3.39
2019-02-26T06:48:14.702Z,3.53
2019-02-26T06:49:11.433Z,3.62
2019-02-26T06:50:13.252Z,3.64
2019-02-26T06:51:11.266Z,3.65
2019-02-26T06:52:12.979Z,3.57
2019-02-26T06:53:13.495Z,3.68
2019-02-26T06:54:11.016Z,3.68
2019-02-26T06:55:10.934Z,3.59
2019-02-26T06:56:10.851Z,3.65
2019-02-26T06:57:10.769Z,3.57
2019-02-26T06:58:10.685Z,3.37
2019-02-26T06:59:12.248Z,3.28
2019-02-26T07:00:10.519Z,3.19
2019-02-26T07:01:12.101Z,3.28
2019-02-26T07:02:11.007Z,3.21
2019-02-26T07:03:10.270Z,3.25
2019-02-26T07:04:12.864Z,3.16
2019-02-26T07:05:10.104Z,3.27
2019-02-26T07:06:10.020Z,3.21
2019-02-26T07:07:13.770Z,3.27
2019-02-26T07:08:09.854Z,3.19
2019-02-26T07:09:10.968Z,3.17
2019-02-26T07:10:13.792Z,3.17
2019-02-26T07:11:09.605Z,3.24
2019-02-26T07:12:09.522Z,3.22
2019-02-26T07:13:11.409Z,3.21
2019-02-26T07:14:10.362Z,3.19
2019-02-26T07:15:11.667Z,3.24
2019-02-26T07:16:09.190Z,3.28
2019-02-26T07:17:09.106Z,3.43
2019-02-26T07:18:10.240Z,3.50
2019-02-26T07:19:09.048Z,3.46
2019-02-26T07:20:08.876Z,3.51
2019-02-26T07:21:08.775Z,3.54
2019-02-26T07:22:11.183Z,3.59
2019-02-26T07:23:10.500Z,3.57
2019-02-26T07:24:08.525Z,3.61
2019-02-26T07:25:10.332Z,3.62
2019-02-26T07:26:08.356Z,3.72
2019-02-26T07:27:09.144Z,3.68
2019-02-26T07:28:08.197Z,3.69
2019-02-26T07:29:10.266Z,3.79
2019-02-26T07:30:08.027Z,3.83
2019-02-26T07:31:09.786Z,3.77
2019-02-26T07:32:07.864Z,3.86
2019-02-26T07:33:09.601Z,3.97
2019-02-26T07:34:07.693Z,3.92
2019-02-26T07:35:08.734Z,3.97
2019-02-26T07:36:07.535Z,3.93
2019-02-26T07:37:09.329Z,3.97
2019-02-26T07:38:07.415Z,3.94
2019-02-26T07:39:07.282Z,3.92
2019-02-26T07:40:08.754Z,3.90
2019-02-26T07:41:07.118Z,3.83
2019-02-26T07:42:09.079Z,3.89
2019-02-26T07:43:09.194Z,3.86
2019-02-26T07:44:09.175Z,3.87
2019-02-26T07:45:14.611Z,3.87
2019-02-26T07:46:06.706Z,3.80
2019-02-26T07:47:08.681Z,3.89
2019-02-26T07:48:06.540Z,3.92
2019-02-26T07:49:07.453Z,3.93
2019-02-26T07:50:07.522Z,4.00
2019-02-26T07:51:06.292Z,4.07
2019-02-26T07:52:08.552Z,4.04
2019-02-26T07:53:06.127Z,4.08
2019-02-26T07:54:06.043Z,4.22
2019-02-26T07:55:06.316Z,4.19
2019-02-26T07:56:06.709Z,4.11
2019-02-26T07:57:05.797Z,4.30
2019-02-26T07:58:06.709Z,4.30
2019-02-26T07:59:09.447Z,4.55
2019-02-26T08:00:05.550Z,4.48
2019-02-26T08:01:05.468Z,4.65
2019-02-26T08:02:06.354Z,4.68
2019-02-26T08:03:05.303Z,4.77
2019-02-26T08:04:06.222Z,4.91
2019-02-26T08:05:05.141Z,5.00
2019-02-26T08:06:08.662Z,5.02
2019-02-26T08:07:04.981Z,5.13
2019-02-26T08:08:04.894Z,5.20
2019-02-26T08:09:07.089Z,5.26
2019-02-26T08:10:06.095Z,5.35
2019-02-26T08:11:04.648Z,5.44
2019-02-26T08:12:06.594Z,5.59
2019-02-26T08:13:06.268Z,5.67
2019-02-26T08:14:04.404Z,5.74
2019-02-26T08:15:05.681Z,5.81
2019-02-26T08:16:05.157Z,5.99
2019-02-26T08:17:06.118Z,6.08
2019-02-26T08:18:05.321Z,6.22
2019-02-26T08:19:03.999Z,6.27
2019-02-26T08:20:07.248Z,6.37
2019-02-26T08:21:05.034Z,6.55
2019-02-26T08:22:03.755Z,6.73
2019-02-26T08:23:03.676Z,6.75
2019-02-26T08:24:03.593Z,6.88
2019-02-26T08:25:03.517Z,6.87
2019-02-26T08:26:03.433Z,7.06
2019-02-26T08:27:04.215Z,7.11
2019-02-26T08:28:03.272Z,7.12
2019-02-26T08:29:05.120Z,7.13
2019-02-26T08:30:03.111Z,7.31
2019-02-26T08:31:04.736Z,7.31
2019-02-26T08:32:02.953Z,7.39
2019-02-26T08:33:05.245Z,7.56
2019-02-26T08:34:02.791Z,7.73
2019-02-26T08:35:02.711Z,7.75
2019-02-26T08:36:02.631Z,7.88
2019-02-26T08:37:02.551Z,7.88
2019-02-26T08:38:05.639Z,7.97
2019-02-26T08:39:02.392Z,8.03
2019-02-26T08:40:02.315Z,8.17
2019-02-26T08:41:02.233Z,8.19
2019-02-26T08:42:02.152Z,8.27
2019-02-26T08:43:02.074Z,8.40
2019-02-26T08:44:01.995Z,8.40
2019-02-26T08:45:01.916Z,8.50
2019-02-26T08:46:01.837Z,8.51
2019-02-26T08:47:06.058Z,8.69
2019-02-26T08:48:01.679Z,8.69
2019-02-26T08:49:08.059Z,8.66
2019-02-26T08:50:03.989Z,8.82
2019-02-26T08:51:05.358Z,8.84
2019-02-26T08:52:01.363Z,8.95
2019-02-26T08:53:01.285Z,9.06
2019-02-26T08:54:01.208Z,9.09
2019-02-26T08:55:01.128Z,9.14
2019-02-26T08:56:03.438Z,9.29
2019-02-26T08:57:00.972Z,9.27
2019-02-26T08:58:00.895Z,9.31
2019-02-26T08:59:01.783Z,9.46
2019-02-26T09:00:00.736Z,9.43
2019-02-26T09:01:00.658Z,9.61
2019-02-26T09:02:00.580Z,9.70
2019-02-26T09:03:00.503Z,9.71
2019-02-26T09:04:00.823Z,9.82
2019-02-26T09:05:01.625Z,9.86
2019-02-26T09:06:10.977Z,9.92
2019-02-26T09:07:01.968Z,9.92
2019-02-26T09:08:00.142Z,10.06
2019-02-26T09:09:01.999Z,10.06
2019-02-26T09:09:59.960Z,10.21
2019-02-26T09:11:00.838Z,10.15
2019-02-26T09:12:01.205Z,10.36
2019-02-26T09:12:59.760Z,10.39
2019-02-26T09:14:03.946Z,10.40
2019-02-26T09:14:59.578Z,10.41
2019-02-26T09:16:01.017Z,10.44
2019-02-26T09:17:00.236Z,10.59
2019-02-26T09:17:59.390Z,10.56
2019-02-26T09:18:59.263Z,10.49
2019-02-26T09:20:08.403Z,10.55
2019-02-26T09:20:59.110Z,10.55
2019-02-26T09:21:59.034Z,10.77
2019-02-26T09:23:01.395Z,10.78
2019-02-26T09:24:00.039Z,10.80
2019-02-26T09:24:59.909Z,10.98
2019-02-26T09:26:00.399Z,10.99
2019-02-26T09:27:00.469Z,11.02
2019-02-26T09:27:58.568Z,10.95
2019-02-26T09:28:58.492Z,11.10
2019-02-26T09:29:58.416Z,11.08
2019-02-26T09:31:01.017Z,11.23
2019-02-26T09:31:58.261Z,11.20
2019-02-26T09:33:00.542Z,11.26
2019-02-26T09:33:58.107Z,11.32
2019-02-26T09:34:59.187Z,11.35
2019-02-26T09:35:57.953Z,11.47
2019-02-26T09:36:58.276Z,11.59
2019-02-26T09:38:00.815Z,11.68
2019-02-26T09:38:57.724Z,11.71
2019-02-26T09:39:59.236Z,11.84
2019-02-26T09:40:57.568Z,11.79
2019-02-26T09:41:59.406Z,11.86
2019-02-26T09:43:00.027Z,12.02
2019-02-26T09:43:59.378Z,12.02
2019-02-26T09:44:57.757Z,12.06
2019-02-26T09:45:57.185Z,12.12
2019-02-26T09:46:58.309Z,12.12
2019-02-26T09:47:57.970Z,12.19
2019-02-26T09:48:57.910Z,12.19
2019-02-26T09:49:58.389Z,12.18
2019-02-26T09:50:56.801Z,12.31
2019-02-26T09:51:57.294Z,12.39
2019-02-26T09:52:59.166Z,12.45
2019-02-26T09:53:58.866Z,12.49
2019-02-26T09:54:56.497Z,12.61
2019-02-26T09:55:56.421Z,12.56
2019-02-26T09:56:56.344Z,12.55
2019-02-26T09:57:56.268Z,12.73
2019-02-26T09:58:56.190Z,12.69
2019-02-26T09:59:58.202Z,12.64
2019-02-26T10:00:56.039Z,12.79
2019-02-26T10:01:56.508Z,12.82
2019-02-26T10:02:55.986Z,13.06
2019-02-26T10:03:56.469Z,13.09
2019-02-26T10:04:55.734Z,13.43
2019-02-26T10:05:57.744Z,13.81
2019-02-26T10:06:55.583Z,13.92
2019-02-26T10:07:59.316Z,14.16
2019-02-26T10:08:56.088Z,14.31
2019-02-26T10:09:55.357Z,14.24
2019-02-26T10:10:57.597Z,14.23
2019-02-26T10:11:55.208Z,14.31
2019-02-26T10:12:57.369Z,14.36
2019-02-26T10:13:55.059Z,14.49
2019-02-26T10:14:59.354Z,14.46
2019-02-26T10:15:58.263Z,14.72
2019-02-26T10:16:56.873Z,14.85
2019-02-26T10:17:56.799Z,15.26
2019-02-26T10:18:56.753Z,15.51
2019-02-26T10:19:56.777Z,15.61
2019-02-26T10:20:54.732Z,15.34
2019-02-26T10:21:54.468Z,15.16
2019-02-26T10:22:57.153Z,15.02
2019-02-26T10:23:56.567Z,14.97
2019-02-26T10:24:54.248Z,15.39
2019-02-26T10:25:57.508Z,15.55
2019-02-26T10:26:54.106Z,15.67
2019-02-26T10:27:54.028Z,15.64
2019-02-26T10:28:59.007Z,15.83
2019-02-26T10:29:53.884Z,15.78
2019-02-26T10:30:55.016Z,15.34
2019-02-26T10:31:56.085Z,14.80
2019-02-26T10:32:53.667Z,14.49
2019-02-26T10:33:53.593Z,14.31
2019-02-26T10:34:53.523Z,14.31
2019-02-26T10:35:53.450Z,14.39
2019-02-26T10:36:53.376Z,14.49
2019-02-26T10:37:53.304Z,14.59
2019-02-26T10:38:55.090Z,14.60
2019-02-26T10:39:54.914Z,14.69
2019-02-26T10:40:56.158Z,14.69
2019-02-26T10:41:53.014Z,14.91
2019-02-26T10:42:52.938Z,14.61
2019-02-26T10:43:52.866Z,14.23
2019-02-26T10:44:52.793Z,14.19
2019-02-26T10:45:54.835Z,14.11
2019-02-26T10:46:52.646Z,14.34
2019-02-26T10:47:54.200Z,14.54
2019-02-26T10:48:52.878Z,14.74
2019-02-26T10:49:53.803Z,14.69
2019-02-26T10:50:52.355Z,14.75
2019-02-26T10:51:52.281Z,14.84
2019-02-26T10:52:52.799Z,14.83
2019-02-26T10:53:52.134Z,14.83
2019-02-26T10:54:52.062Z,14.80
2019-02-26T10:55:51.990Z,14.95
2019-02-26T10:56:51.917Z,14.80
2019-02-26T10:57:52.519Z,15.02
2019-02-26T10:58:54.689Z,15.20
2019-02-26T10:59:51.703Z,15.39
2019-02-26T11:00:53.203Z,15.51
2019-02-26T11:01:53.224Z,15.67
2019-02-26T11:02:54.095Z,15.97
2019-02-26T11:03:52.851Z,16.03
2019-02-26T11:04:53.465Z,16.04
2019-02-26T11:05:52.171Z,16.27
2019-02-26T11:06:51.190Z,16.41
2019-02-26T11:07:53.191Z,16.55
2019-02-26T11:08:52.913Z,16.33
2019-02-26T11:09:53.036Z,16.59
2019-02-26T11:10:52.388Z,16.92
2019-02-26T11:11:50.831Z,17.28
2019-02-26T11:12:53.579Z,17.55
2019-02-26T11:13:53.648Z,17.69
2019-02-26T11:14:50.636Z,17.74
2019-02-26T11:15:51.639Z,17.74
2019-02-26T11:16:50.474Z,17.71
2019-02-26T11:17:51.316Z,17.96
2019-02-26T11:18:50.333Z,17.98
2019-02-26T11:19:50.262Z,17.92
2019-02-26T11:20:51.105Z,17.94
2019-02-26T11:21:54.820Z,18.18
2019-02-26T11:22:51.939Z,18.55
2019-02-26T11:23:49.982Z,18.16
2019-02-26T11:24:50.798Z,17.70
2019-02-26T11:25:49.840Z,17.43
2019-02-26T11:26:49.771Z,17.44
2019-02-26T11:27:49.701Z,17.53
2019-02-26T11:28:49.653Z,17.87
2019-02-26T11:29:49.564Z,18.10
2019-02-26T11:30:51.582Z,18.04
2019-02-26T11:31:49.737Z,18.32
2019-02-26T11:32:49.375Z,18.52
2019-02-26T11:33:49.290Z,18.76
2019-02-26T11:34:50.873Z,18.89
2019-02-26T11:35:51.330Z,19.13
2019-02-26T11:36:49.173Z,19.72
2019-02-26T11:37:50.307Z,20.27
2019-02-26T11:38:48.935Z,20.83
2019-02-26T11:39:48.866Z,21.08
2019-02-26T11:40:48.799Z,21.21
2019-02-26T11:41:50.633Z,21.70
2019-02-26T11:42:49.362Z,22.12
2019-02-26T11:43:48.593Z,21.75
2019-02-26T11:44:48.525Z,21.20
2019-02-26T11:45:48.458Z,21.39
2019-02-26T11:46:51.139Z,22.12
2019-02-26T11:47:48.323Z,22.37
2019-02-26T11:48:50.055Z,22.16
2019-02-26T11:49:48.188Z,22.54
2019-02-26T11:50:48.121Z,23.15
2019-02-26T11:51:48.057Z,23.70
2019-02-26T11:52:51.905Z,23.60
2019-02-26T11:53:47.922Z,23.90
2019-02-26T11:54:47.856Z,23.40
2019-02-26T11:55:49.873Z,23.23
2019-02-26T11:56:49.862Z,23.43
2019-02-26T11:57:49.740Z,23.12
2019-02-26T11:58:47.596Z,23.68
2019-02-26T12:00:33.862Z,23.08
2019-02-26T12:01:32.009Z,23.78
2019-02-26T12:02:33.791Z,24.08
2019-02-26T12:03:33.154Z,24.07
2019-02-26T12:04:29.764Z,23.53
2019-02-26T12:05:33.424Z,23.07
2019-02-26T12:06:29.637Z,23.58
2019-02-26T12:07:29.867Z,24.15
2019-02-26T12:08:29.509Z,24.95
2019-02-26T12:09:32.421Z,25.57
2019-02-26T12:10:31.819Z,25.32
2019-02-26T12:11:29.319Z,25.57
2019-02-26T12:12:31.154Z,25.65
2019-02-26T12:13:29.193Z,25.19
2019-02-26T12:14:29.129Z,25.19
2019-02-26T12:15:30.203Z,25.45
2019-02-26T12:16:29.003Z,25.56
2019-02-26T12:17:28.940Z,25.40
2019-02-26T12:18:28.878Z,24.82
2019-02-26T12:19:31.116Z,23.86
2019-02-26T12:20:28.759Z,23.05
2019-02-26T12:21:29.919Z,23.26
2019-02-26T12:22:29.906Z,23.78
2019-02-26T12:23:28.569Z,23.60
2019-02-26T12:24:28.915Z,22.89
2019-02-26T12:25:28.441Z,22.96
2019-02-26T12:26:30.141Z,22.75
2019-02-26T12:27:28.316Z,23.34
2019-02-26T12:28:29.136Z,23.40
2019-02-26T12:29:28.479Z,23.92
2019-02-26T12:30:28.130Z,24.08
2019-02-26T12:31:31.153Z,23.72
2019-02-26T12:32:29.619Z,23.71
2019-02-26T12:33:27.943Z,23.52
2019-02-26T12:34:28.035Z,23.55
2019-02-26T12:35:29.663Z,23.24
2019-02-26T12:36:29.894Z,23.02
2019-02-26T12:37:27.694Z,22.53
2019-02-26T12:38:27.631Z,22.65
2019-02-26T12:39:29.130Z,22.89
2019-02-26T12:40:27.506Z,23.02
2019-02-26T12:41:27.445Z,22.63
2019-02-26T12:42:27.382Z,22.16
2019-02-26T12:43:27.318Z,22.65
2019-02-26T12:44:29.091Z,22.56
2019-02-26T12:45:28.541Z,22.34
2019-02-26T12:46:28.200Z,22.28
2019-02-26T12:47:27.724Z,22.38
2019-02-26T12:48:27.004Z,22.35
2019-02-26T12:49:28.949Z,22.34
2019-02-26T12:50:29.880Z,22.50
2019-02-26T12:51:31.180Z,23.02
2019-02-26T12:52:27.711Z,23.45
2019-02-26T12:53:26.690Z,23.79
2019-02-26T12:54:27.488Z,23.17
2019-02-26T12:55:29.512Z,23.27
2019-02-26T12:56:27.870Z,23.09
2019-02-26T12:57:28.866Z,23.12
2019-02-26T12:58:27.961Z,23.52
2019-02-26T12:59:26.311Z,23.53
2019-02-26T13:00:26.400Z,23.55
2019-02-26T13:01:26.187Z,23.50
2019-02-26T13:02:26.123Z,23.65
2019-02-26T13:03:26.060Z,23.09
2019-02-26T13:04:25.999Z,22.96
2019-02-26T13:05:25.939Z,23.11
2019-02-26T13:06:25.871Z,23.23
2019-02-26T13:07:25.807Z,23.14
2019-02-26T13:08:25.744Z,22.72
2019-02-26T13:09:26.860Z,22.74
2019-02-26T13:10:25.619Z,22.71